createdAt,value
2022-09-01T00:00:33.929Z, 39.00
2022-09-01T00:01:33.935Z, 39.00
2022-09-01T00:02:34.071Z, 38.97
2022-09-01T00:03:34.072Z, 39.07
2022-09-01T00:04:34.197Z, 39.04
2022-09-01T00:05:34.075Z, 39.01
2022-09-01T00:06:34.112Z, 39.04
2022-09-01T00:07:34.208Z, 39.02
2022-09-01T00:08:34.178Z, 39.16
2022-09-01T00:09:34.226Z, 39.11
2022-09-01T00:10:34.311Z, 38.94
2022-09-01T00:11:34.292Z, 38.86
2022-09-01T00:12:34.375Z, 39.25
2022-09-01T00:13:34.344Z, 38.96
2022-09-01T00:14:36.457Z, 38.92
2022-09-01T00:15:34.535Z, 38.94
2022-09-01T00:16:34.447Z, 39.11
2022-09-01T00:17:34.483Z, 39.18
2022-09-01T00:18:34.505Z, 38.95
2022-09-01T00:19:34.601Z, 39.07
2022-09-01T00:20:34.598Z, 39.00
2022-09-01T00:21:34.593Z, 39.11
2022-09-01T00:22:34.659Z, 39.01
2022-09-01T00:23:34.655Z, 39.05
2022-09-01T00:24:34.761Z, 39.07
2022-09-01T00:25:34.765Z, 39.26
2022-09-01T00:26:34.755Z, 38.99
2022-09-01T00:27:34.784Z, 39.16
2022-09-01T00:28:34.837Z, 39.09
2022-09-01T00:29:34.892Z, 38.96
2022-09-01T00:30:34.876Z, 39.00
2022-09-01T00:31:34.915Z, 38.94
2022-09-01T00:32:34.954Z, 39.15
2022-09-01T00:33:35.021Z, 39.22
2022-09-01T00:34:35.029Z, 39.13
2022-09-01T00:35:37.093Z, 39.31
2022-09-01T00:36:35.085Z, 39.06
2022-09-01T00:37:35.176Z, 39.02
2022-09-01T00:38:35.165Z, 39.19
2022-09-01T00:39:35.243Z, 39.07
2022-09-01T00:40:35.324Z, 39.01
2022-09-01T00:41:35.269Z, 39.08
2022-09-01T00:42:35.341Z, 38.98
2022-09-01T00:43:35.319Z, 38.91
2022-09-01T00:44:35.397Z, 39.33
2022-09-01T00:45:35.384Z, 39.13
2022-09-01T00:46:40.621Z, 39.12
2022-09-01T00:47:35.519Z, 39.01
2022-09-01T00:48:35.501Z, 39.06
2022-09-01T00:49:35.615Z, 39.08
2022-09-01T00:50:35.579Z, 39.12
2022-09-01T00:51:35.672Z, 39.34
2022-09-01T00:52:35.655Z, 39.13
2022-09-01T00:53:35.719Z, 39.02
2022-09-01T00:54:35.760Z, 39.09
2022-09-01T00:55:35.730Z, 39.11
2022-09-01T00:56:35.861Z, 39.39
2022-09-01T00:57:35.831Z, 39.06
2022-09-01T00:58:35.832Z, 39.14
2022-09-01T00:59:35.860Z, 38.97
2022-09-01T01:00:35.884Z, 39.07
2022-09-01T01:01:36.034Z, 39.11
2022-09-01T01:02:36.055Z, 39.11
2022-09-01T01:03:36.042Z, 39.08
2022-09-01T01:04:36.041Z, 39.15
2022-09-01T01:05:36.070Z, 39.10
2022-09-01T01:06:36.171Z, 39.07
2022-09-01T01:07:36.167Z, 39.11
2022-09-01T01:08:36.182Z, 39.12
2022-09-01T01:09:36.259Z, 39.21
2022-09-01T01:10:36.236Z, 39.37
2022-09-01T01:11:36.337Z, 39.19
2022-09-01T01:12:36.358Z, 39.11
2022-09-01T01:13:36.340Z, 39.10
2022-09-01T01:14:36.382Z, 39.12
2022-09-01T01:15:36.458Z, 39.08
2022-09-01T01:16:36.484Z, 39.25
2022-09-01T01:17:36.456Z, 39.05
2022-09-01T01:18:36.496Z, 39.18
2022-09-01T01:19:39.018Z, 39.03
2022-09-01T01:20:36.559Z, 39.28
2022-09-01T01:21:36.582Z, 39.15
2022-09-01T01:22:36.619Z, 39.14
2022-09-01T01:23:36.642Z, 39.14
2022-09-01T01:24:36.686Z, 39.09
2022-09-01T01:25:36.735Z, 39.10
2022-09-01T01:26:36.839Z, 39.08
2022-09-01T01:27:42.838Z, 39.17
2022-09-01T01:28:36.822Z, 39.09
2022-09-01T01:29:36.875Z, 39.03
2022-09-01T01:30:37.072Z, 39.13
2022-09-01T01:31:36.966Z, 38.99
2022-09-01T01:32:37.052Z, 39.19
2022-09-01T01:33:37.021Z, 39.22
2022-09-01T01:34:37.074Z, 39.04
2022-09-01T01:35:37.122Z, 39.16
2022-09-01T01:36:37.114Z, 39.04
2022-09-01T01:37:37.150Z, 39.16
2022-09-01T01:38:37.161Z, 39.19
2022-09-01T01:39:37.230Z, 39.29
2022-09-01T01:40:37.331Z, 39.13
2022-09-01T01:41:37.281Z, 39.13
2022-09-01T01:42:37.328Z, 39.34
2022-09-01T01:43:37.359Z, 39.14
2022-09-01T01:44:37.431Z, 39.17
2022-09-01T01:45:37.472Z, 39.06
2022-09-01T01:46:37.435Z, 39.12
2022-09-01T01:47:37.468Z, 39.00
2022-09-01T01:48:37.503Z, 39.19
2022-09-01T01:49:37.536Z, 39.07
2022-09-01T01:50:37.563Z, 39.03
2022-09-01T01:51:37.604Z, 38.98
2022-09-01T01:52:37.704Z, 39.05
2022-09-01T01:53:37.659Z, 39.08
2022-09-01T01:54:37.734Z, 39.28
2022-09-01T01:55:37.725Z, 39.10
2022-09-01T01:56:37.742Z, 39.23
2022-09-01T01:57:37.773Z, 39.10
2022-09-01T01:58:37.811Z, 38.95
2022-09-01T01:59:37.906Z, 39.02
2022-09-01T02:00:37.897Z, 39.20
2022-09-01T02:01:37.961Z, 39.01
2022-09-01T02:02:38.053Z, 39.23
2022-09-01T02:03:37.990Z, 38.95
2022-09-01T02:04:38.019Z, 39.03
2022-09-01T02:05:38.076Z, 38.96
2022-09-01T02:06:38.154Z, 39.08
2022-09-01T02:07:38.178Z, 39.06
2022-09-01T02:08:38.151Z, 39.12
2022-09-01T02:09:38.228Z, 39.18
2022-09-01T02:10:38.282Z, 39.09
2022-09-01T02:11:38.337Z, 39.16
2022-09-01T02:12:38.376Z, 39.14
2022-09-01T02:13:38.355Z, 39.19
2022-09-01T02:14:38.368Z, 39.07
2022-09-01T02:15:38.393Z, 39.05
2022-09-01T02:16:38.558Z, 39.10
2022-09-01T02:17:38.493Z, 39.25
2022-09-01T02:18:38.543Z, 39.17
2022-09-01T02:19:38.596Z, 39.05
2022-09-01T02:20:38.648Z, 39.05
2022-09-01T02:21:38.645Z, 39.02
2022-09-01T02:22:38.655Z, 39.24
2022-09-01T02:23:38.690Z, 39.07
2022-09-01T02:24:38.715Z, 39.07
2022-09-01T02:25:49.337Z, 39.06
2022-09-01T02:26:38.782Z, 39.09
2022-09-01T02:27:38.829Z, 39.18
2022-09-01T02:28:38.921Z, 38.96
2022-09-01T02:29:40.287Z, 39.30
2022-09-01T02:30:38.946Z, 39.30
2022-09-01T02:31:38.962Z, 39.15
2022-09-01T02:32:39.004Z, 39.09
2022-09-01T02:33:39.102Z, 39.33
2022-09-01T02:34:39.090Z, 39.21
2022-09-01T02:35:39.096Z, 39.07
2022-09-01T02:36:39.184Z, 39.05
2022-09-01T02:37:39.167Z, 39.26
2022-09-01T02:38:39.186Z, 39.10
2022-09-01T02:39:39.286Z, 39.09
2022-09-01T02:40:39.324Z, 39.12
2022-09-01T02:41:39.324Z, 39.20
2022-09-01T02:42:39.360Z, 39.16
2022-09-01T02:43:39.383Z, 39.27
2022-09-01T02:44:41.474Z, 39.15
2022-09-01T02:45:39.485Z, 39.11
2022-09-01T02:46:39.535Z, 39.08
2022-09-01T02:47:39.536Z, 39.17
2022-09-01T02:48:39.564Z, 39.04
2022-09-01T02:49:39.610Z, 39.12
2022-09-01T02:50:39.631Z, 39.21
2022-09-01T02:51:39.729Z, 39.07
2022-09-01T02:52:39.748Z, 39.21
2022-09-01T02:53:39.747Z, 39.11
2022-09-01T02:54:39.792Z, 39.17
2022-09-01T02:55:39.822Z, 39.20
2022-09-01T02:56:39.864Z, 39.23
2022-09-01T02:57:39.907Z, 39.14
2022-09-01T02:58:40.008Z, 39.20
2022-09-01T02:59:43.714Z, 39.11
2022-09-01T03:00:40.001Z, 39.14
2022-09-01T03:01:40.189Z, 39.05
2022-09-01T03:02:40.067Z, 39.03
2022-09-01T03:03:40.098Z, 39.10
2022-09-01T03:04:40.133Z, 39.21
2022-09-01T03:05:40.225Z, 39.11
2022-09-01T03:06:40.215Z, 39.34
2022-09-01T03:07:40.249Z, 38.97
2022-09-01T03:08:40.348Z, 39.17
2022-09-01T03:09:40.323Z, 39.18
2022-09-01T03:10:40.358Z, 39.43
2022-09-01T03:11:40.418Z, 39.10
2022-09-01T03:12:40.414Z, 39.05
2022-09-01T03:13:40.502Z, 39.13
2022-09-01T03:14:40.501Z, 39.12
2022-09-01T03:15:40.543Z, 39.00
2022-09-01T03:16:40.701Z, 38.86
2022-09-01T03:17:40.658Z, 38.98
2022-09-01T03:18:40.637Z, 39.03
2022-09-01T03:19:40.665Z, 39.10
2022-09-01T03:20:40.691Z, 39.25
2022-09-01T03:21:40.727Z, 39.13
2022-09-01T03:22:40.802Z, 38.95
2022-09-01T03:23:40.780Z, 39.19
2022-09-01T03:24:40.822Z, 39.07
2022-09-01T03:25:40.928Z, 39.03
2022-09-01T03:26:40.904Z, 39.06
2022-09-01T03:27:40.935Z, 39.05
2022-09-01T03:28:41.045Z, 38.91
2022-09-01T03:29:41.072Z, 38.86
2022-09-01T03:30:41.108Z, 38.98
2022-09-01T03:31:41.151Z, 38.95
2022-09-01T03:32:41.169Z, 38.89
2022-09-01T03:33:41.179Z, 38.80
2022-09-01T03:34:41.236Z, 39.01
2022-09-01T03:35:41.274Z, 38.90
2022-09-01T03:36:41.265Z, 38.71
2022-09-01T03:37:41.281Z, 38.85
2022-09-01T03:38:41.304Z, 38.88
2022-09-01T03:39:41.340Z, 38.80
2022-09-01T03:40:41.547Z, 38.68
2022-09-01T03:41:41.475Z, 38.94
2022-09-01T03:42:41.461Z, 38.75
2022-09-01T03:43:47.108Z, 38.83
2022-09-01T03:44:41.521Z, 38.83
2022-09-01T03:45:41.625Z, 38.91
2022-09-01T03:46:41.610Z, 38.78
2022-09-01T03:47:41.606Z, 38.69
2022-09-01T03:48:41.635Z, 38.74
2022-09-01T03:49:41.664Z, 38.84
2022-09-01T03:50:41.696Z, 38.79
2022-09-01T03:51:41.806Z, 38.62
2022-09-01T03:52:41.786Z, 38.69
2022-09-01T03:53:41.811Z, 38.65
2022-09-01T03:54:41.810Z, 38.75
2022-09-01T03:55:41.861Z, 38.80
2022-09-01T03:56:42.084Z, 38.82
2022-09-01T03:57:41.935Z, 38.93
2022-09-01T03:58:42.021Z, 38.89
2022-09-01T03:59:42.004Z, 38.92
2022-09-01T04:00:42.057Z, 38.92
2022-09-01T04:01:42.040Z, 38.66
2022-09-01T04:02:42.133Z, 38.61
2022-09-01T04:03:42.125Z, 38.79
2022-09-01T04:04:42.155Z, 38.82
2022-09-01T04:05:42.229Z, 38.85
2022-09-01T04:06:42.226Z, 38.87
2022-09-01T04:07:42.262Z, 38.89
2022-09-01T04:08:42.323Z, 38.90
2022-09-01T04:09:42.329Z, 38.88
2022-09-01T04:10:42.372Z, 39.00
2022-09-01T04:11:45.759Z, 38.76
2022-09-01T04:12:42.450Z, 39.02
2022-09-01T04:13:42.478Z, 38.91
2022-09-01T04:14:42.570Z, 38.97
2022-09-01T04:15:42.543Z, 38.76
2022-09-01T04:16:42.618Z, 38.88
2022-09-01T04:17:42.646Z, 38.61
2022-09-01T04:18:42.626Z, 38.86
2022-09-01T04:19:42.721Z, 38.81
2022-09-01T04:20:42.699Z, 38.80
2022-09-01T04:21:42.733Z, 38.73
2022-09-01T04:22:42.755Z, 38.97
2022-09-01T04:23:42.843Z, 38.71
2022-09-01T04:24:45.051Z, 38.91
2022-09-01T04:25:42.851Z, 38.92
2022-09-01T04:26:42.881Z, 39.17
2022-09-01T04:27:42.923Z, 38.85
2022-09-01T04:28:42.960Z, 38.83
2022-09-01T04:29:43.044Z, 39.08
2022-09-01T04:30:43.066Z, 38.93
2022-09-01T04:31:43.105Z, 38.94
2022-09-01T04:32:43.081Z, 39.11
2022-09-01T04:33:43.125Z, 38.81
2022-09-01T04:34:43.155Z, 38.96
2022-09-01T04:35:43.258Z, 38.90
2022-09-01T04:36:43.304Z, 38.79
2022-09-01T04:37:43.325Z, 38.91
2022-09-01T04:38:43.325Z, 39.01
2022-09-01T04:39:43.340Z, 38.93
2022-09-01T04:40:43.415Z, 39.05
2022-09-01T04:41:43.456Z, 39.12
2022-09-01T04:42:43.441Z, 39.08
2022-09-01T04:43:43.497Z, 39.07
2022-09-01T04:44:43.562Z, 39.09
2022-09-01T04:45:43.613Z, 38.88
2022-09-01T04:46:43.542Z, 39.05
2022-09-01T04:47:43.572Z, 39.09
2022-09-01T04:48:43.688Z, 39.02
2022-09-01T04:49:43.652Z, 38.98
2022-09-01T04:50:43.691Z, 39.21
2022-09-01T04:51:43.722Z, 39.02
2022-09-01T04:52:43.819Z, 39.17
2022-09-01T04:53:43.795Z, 38.98
2022-09-01T04:54:43.824Z, 38.94
2022-09-01T04:55:43.873Z, 38.98
2022-09-01T04:56:43.886Z, 39.16
2022-09-01T04:57:43.920Z, 39.06
2022-09-01T04:58:43.955Z, 38.98
2022-09-01T04:59:43.999Z, 38.95
2022-09-01T05:00:44.058Z, 38.87
2022-09-01T05:01:44.116Z, 38.97
2022-09-01T05:02:44.077Z, 39.00
2022-09-01T05:03:44.102Z, 39.00
2022-09-01T05:04:44.122Z, 38.96
2022-09-01T05:05:44.167Z, 39.02
2022-09-01T05:06:44.208Z, 38.98
2022-09-01T05:07:44.233Z, 39.12
2022-09-01T05:08:44.265Z, 38.92
2022-09-01T05:09:44.356Z, 38.89
2022-09-01T05:10:44.348Z, 38.90
2022-09-01T05:11:44.410Z, 38.95
2022-09-01T05:12:44.440Z, 38.87
2022-09-01T05:13:44.429Z, 38.88
2022-09-01T05:14:44.454Z, 38.87
2022-09-01T05:15:44.479Z, 38.90
2022-09-01T05:16:44.553Z, 38.89
2022-09-01T05:17:44.537Z, 38.92
2022-09-01T05:18:44.631Z, 39.16
2022-09-01T05:19:44.613Z, 39.01
2022-09-01T05:20:44.636Z, 39.03
2022-09-01T05:21:44.683Z, 39.02
2022-09-01T05:22:44.713Z, 38.90
2022-09-01T05:23:44.778Z, 38.86
2022-09-01T05:24:44.778Z, 38.98
2022-09-01T05:25:44.798Z, 38.89
2022-09-01T05:26:44.880Z, 38.91
2022-09-01T05:27:44.873Z, 38.86
2022-09-01T05:28:44.911Z, 38.85
2022-09-01T05:29:44.940Z, 38.83
2022-09-01T05:30:44.970Z, 38.85
2022-09-01T05:31:45.056Z, 38.94
2022-09-01T05:32:45.024Z, 38.96
2022-09-01T05:33:45.077Z, 39.09
2022-09-01T05:34:45.160Z, 39.07
2022-09-01T05:35:45.141Z, 38.94
2022-09-01T05:36:45.179Z, 38.79
2022-09-01T05:37:45.184Z, 39.00
2022-09-01T05:38:45.208Z, 39.03
2022-09-01T05:39:45.249Z, 39.05
2022-09-01T05:40:45.326Z, 38.96
2022-09-01T05:41:45.371Z, 38.77
2022-09-01T05:42:45.395Z, 39.04
2022-09-01T05:43:45.385Z, 38.83
2022-09-01T05:44:45.417Z, 38.85
2022-09-01T05:46:05.512Z, 38.94
2022-09-01T05:46:45.570Z, 38.99
2022-09-01T05:47:45.523Z, 38.88
2022-09-01T05:48:45.513Z, 38.92
2022-09-01T05:49:45.537Z, 38.93
2022-09-01T05:50:45.572Z, 38.93
2022-09-01T05:51:50.301Z, 38.96
2022-09-01T05:52:45.669Z, 39.11
2022-09-01T05:53:45.677Z, 38.86
2022-09-01T05:54:45.711Z, 38.93
2022-09-01T05:55:45.717Z, 39.27
2022-09-01T05:56:45.820Z, 38.98
2022-09-01T05:57:45.867Z, 38.93
2022-09-01T05:59:45.867Z, 39.01
2022-09-01T06:00:45.898Z, 38.97
2022-09-01T06:01:50.040Z, 38.87
2022-09-01T06:02:46.069Z, 39.01
2022-09-01T06:03:46.003Z, 39.10
2022-09-01T06:04:46.034Z, 38.91
2022-09-01T06:05:46.103Z, 39.14
2022-09-01T06:07:05.445Z, 38.99
2022-09-01T06:07:46.203Z, 39.20
2022-09-01T06:08:46.818Z, 39.16
2022-09-01T06:09:46.250Z, 39.09
2022-09-01T06:10:46.294Z, 38.92
2022-09-01T06:11:46.339Z, 39.00
2022-09-01T06:12:48.783Z, 38.92
2022-09-01T06:13:46.409Z, 38.97
2022-09-01T06:14:46.407Z, 39.17
2022-09-01T06:15:46.450Z, 39.07
2022-09-01T06:16:46.503Z, 39.12
2022-09-01T06:17:46.500Z, 39.17
2022-09-01T06:18:46.526Z, 39.17
2022-09-01T06:19:46.554Z, 39.14
2022-09-01T06:20:46.598Z, 39.05
2022-09-01T06:21:46.643Z, 38.60
2022-09-01T06:22:46.719Z, 38.69
2022-09-01T06:23:46.715Z, 38.71
2022-09-01T06:24:53.328Z, 38.57
2022-09-01T06:25:46.789Z, 38.92
2022-09-01T06:26:46.816Z, 38.77
2022-09-01T06:27:46.847Z, 38.76
2022-09-01T06:28:46.916Z, 38.78
2022-09-01T06:29:46.924Z, 38.67
2022-09-01T06:30:47.022Z, 38.69
2022-09-01T06:31:47.057Z, 38.68
2022-09-01T06:32:47.017Z, 38.66
2022-09-01T06:33:47.096Z, 38.77
2022-09-01T06:34:47.131Z, 38.84
2022-09-01T06:35:47.117Z, 38.78
2022-09-01T06:36:47.159Z, 38.97
2022-09-01T06:37:47.218Z, 38.88
2022-09-01T06:38:47.236Z, 38.83
2022-09-01T06:39:47.260Z, 38.75
2022-09-01T06:40:47.377Z, 38.91
2022-09-01T06:41:47.305Z, 38.91
2022-09-01T06:42:47.355Z, 38.77
2022-09-01T06:43:47.436Z, 38.95
2022-09-01T06:44:47.425Z, 38.77
2022-09-01T06:45:47.462Z, 39.02
2022-09-01T06:46:47.593Z, 39.07
2022-09-01T06:47:47.525Z, 38.80
2022-09-01T06:48:47.562Z, 38.87
2022-09-01T06:49:47.591Z, 38.99
2022-09-01T06:51:17.337Z, 38.85
2022-09-01T06:51:47.648Z, 38.88
2022-09-01T06:53:47.943Z, 38.81
2022-09-01T06:54:47.747Z, 38.98
2022-09-01T06:55:47.779Z, 38.72
2022-09-01T06:56:51.950Z, 38.98
2022-09-01T06:58:04.860Z, 38.87
2022-09-01T06:58:47.878Z, 38.82
2022-09-01T06:59:47.890Z, 38.94
2022-09-01T07:00:47.906Z, 38.91
2022-09-01T07:01:48.023Z, 38.82
2022-09-01T07:02:48.123Z, 39.13
2022-09-01T07:03:48.052Z, 39.06
2022-09-01T07:04:48.048Z, 39.04
2022-09-01T07:06:02.879Z, 39.02
2022-09-01T07:08:05.300Z, 39.01
2022-09-01T07:10:05.910Z, 38.71
2022-09-01T07:12:25.326Z, 38.72
2022-09-01T07:16:52.332Z, 39.01
2022-09-01T07:17:48.634Z, 39.02
2022-09-01T07:18:58.285Z, 38.80
2022-09-01T07:19:48.989Z, 38.84
2022-09-01T07:21:36.815Z, 38.89
2022-09-01T07:22:07.275Z, 38.77
2022-09-01T07:23:04.743Z, 38.88
2022-09-01T07:24:06.047Z, 38.95
2022-09-01T07:25:11.558Z, 38.99
2022-09-01T07:26:01.415Z, 38.92
2022-09-01T07:26:48.828Z, 38.89
2022-09-01T07:27:48.845Z, 39.00
2022-09-01T07:28:48.869Z, 39.02
2022-09-01T07:29:48.946Z, 38.88
2022-09-01T07:30:48.949Z, 39.07
2022-09-01T07:31:49.408Z, 38.92
2022-09-01T07:32:49.017Z, 38.96
2022-09-01T07:34:49.069Z, 39.04
2022-09-01T07:38:47.798Z, 38.91
2022-09-01T07:39:48.198Z, 39.00
2022-09-01T07:39:50.169Z, 39.17
2022-09-01T07:42:56.294Z, 38.85
2022-09-01T07:42:59.166Z, 38.87
2022-09-01T07:42:59.454Z, 39.09
2022-09-01T07:42:59.521Z, 38.93
2022-09-01T07:43:49.410Z, 39.19
2022-09-01T07:44:49.378Z, 39.25
2022-09-01T07:45:58.025Z, 39.25
2022-09-01T07:47:19.518Z, 39.16
2022-09-01T07:47:53.116Z, 39.26
2022-09-01T07:49:29.182Z, 39.20
2022-09-01T07:50:12.520Z, 39.10
2022-09-01T07:51:49.677Z, 39.17
2022-09-01T07:52:49.636Z, 39.02
2022-09-01T07:53:49.659Z, 39.41
2022-09-01T07:54:49.735Z, 39.06
2022-09-01T07:55:49.737Z, 39.15
2022-09-01T07:56:49.774Z, 39.40
2022-09-01T07:57:49.797Z, 39.28
2022-09-01T07:58:49.850Z, 39.47
2022-09-01T07:59:49.874Z, 39.44
2022-09-01T08:00:49.914Z, 39.40
2022-09-01T08:01:50.088Z, 39.23
2022-09-01T08:02:52.927Z, 39.38
2022-09-01T08:03:50.025Z, 39.78
2022-09-01T08:04:50.048Z, 39.67
2022-09-01T08:05:50.079Z, 39.39
2022-09-01T08:06:50.103Z, 39.18
2022-09-01T08:07:52.500Z, 39.18
2022-09-01T08:08:50.186Z, 39.39
2022-09-01T08:09:50.232Z, 39.23
2022-09-01T08:10:50.267Z, 39.42
2022-09-01T08:12:01.169Z, 39.37
2022-09-01T08:12:56.884Z, 39.22
2022-09-01T08:13:51.976Z, 39.54
2022-09-01T08:15:12.666Z, 39.41
2022-09-01T08:16:07.242Z, 39.84
2022-09-01T08:16:53.454Z, 39.60
2022-09-01T08:17:51.823Z, 39.77
2022-09-01T08:18:50.582Z, 40.02
2022-09-01T08:19:50.589Z, 39.88
2022-09-01T08:20:50.565Z, 39.78
2022-09-01T08:21:50.577Z, 39.76
2022-09-01T08:22:50.603Z, 39.53
2022-09-01T08:23:50.666Z, 39.63
2022-09-01T08:24:50.785Z, 39.57
2022-09-01T08:25:50.881Z, 39.31
2022-09-01T08:26:50.770Z, 39.36
2022-09-01T08:27:59.718Z, 39.46
2022-09-01T08:28:54.723Z, 39.24
2022-09-01T08:29:50.921Z, 39.27
2022-09-01T08:30:52.638Z, 39.32
2022-09-01T08:31:51.027Z, 39.59
2022-09-01T08:32:50.959Z, 39.40
2022-09-01T08:33:51.049Z, 39.23
2022-09-01T08:34:51.080Z, 39.61
2022-09-01T08:35:51.077Z, 39.49
2022-09-01T08:36:51.081Z, 39.23
2022-09-01T08:37:51.099Z, 39.35
2022-09-01T08:38:51.249Z, 39.43
2022-09-01T08:39:51.192Z, 39.68
2022-09-01T08:40:51.565Z, 39.43
2022-09-01T08:41:51.318Z, 39.85
2022-09-01T08:42:51.302Z, 39.51
2022-09-01T08:43:51.388Z, 39.41
2022-09-01T08:44:51.378Z, 39.46
2022-09-01T08:45:51.393Z, 39.64
2022-09-01T08:46:51.521Z, 39.45
2022-09-01T08:48:28.746Z, 39.95
2022-09-01T08:49:51.538Z, 39.52
2022-09-01T08:50:52.985Z, 39.44
2022-09-01T08:51:51.571Z, 39.19
2022-09-01T08:52:53.033Z, 39.62
2022-09-01T08:53:51.646Z, 39.58
2022-09-01T08:54:51.666Z, 39.61
2022-09-01T08:55:51.700Z, 39.44
2022-09-01T08:56:51.807Z, 39.37
2022-09-01T08:57:54.854Z, 39.32
2022-09-01T08:58:51.825Z, 39.29
2022-09-01T08:59:51.845Z, 39.40
2022-09-01T09:00:54.864Z, 39.97
2022-09-01T09:01:52.013Z, 39.36
2022-09-01T09:02:52.117Z, 39.58
2022-09-01T09:03:52.005Z, 39.63
2022-09-01T09:04:52.015Z, 39.84
2022-09-01T09:05:52.075Z, 39.60
2022-09-01T09:06:52.075Z, 39.48
2022-09-01T09:07:52.091Z, 39.57
2022-09-01T09:08:52.121Z, 39.74
2022-09-01T09:09:54.141Z, 39.85
2022-09-01T09:10:52.178Z, 39.31
2022-09-01T09:11:52.201Z, 39.44
2022-09-01T09:12:52.278Z, 39.54
2022-09-01T09:13:52.259Z, 39.52
2022-09-01T09:14:52.353Z, 39.55
2022-09-01T09:15:52.588Z, 39.45
2022-09-01T09:16:53.792Z, 39.38
2022-09-01T09:17:58.920Z, 39.57
2022-09-01T09:18:56.119Z, 39.50
2022-09-01T09:19:52.455Z, 39.32
2022-09-01T09:20:52.518Z, 39.61
2022-09-01T09:21:52.533Z, 39.22
2022-09-01T09:22:52.567Z, 39.53
2022-09-01T09:23:52.594Z, 39.63
2022-09-01T09:24:52.875Z, 39.79
2022-09-01T09:25:52.714Z, 39.86
2022-09-01T09:26:52.706Z, 39.50
2022-09-01T09:28:00.575Z, 39.57
2022-09-01T09:28:52.748Z, 39.39
2022-09-01T09:29:52.800Z, 39.87
2022-09-01T09:30:52.925Z, 39.82
2022-09-01T09:31:52.877Z, 40.03
2022-09-01T09:33:31.032Z, 39.51
2022-09-01T09:33:53.833Z, 39.40
2022-09-01T09:34:52.957Z, 39.36
2022-09-01T09:35:52.987Z, 39.38
2022-09-01T09:36:55.478Z, 39.37
2022-09-01T09:37:53.147Z, 39.45
2022-09-01T09:38:53.164Z, 39.61
2022-09-01T09:39:54.173Z, 39.54
2022-09-01T09:41:13.855Z, 39.71
2022-09-01T09:41:53.292Z, 39.51
2022-09-01T09:42:53.241Z, 39.98
2022-09-01T09:43:53.288Z, 38.83
2022-09-01T09:44:53.318Z, 38.59
2022-09-01T09:45:53.443Z, 39.05
2022-09-01T09:46:53.479Z, 38.55
2022-09-01T09:47:53.407Z, 38.37
2022-09-01T09:48:53.417Z, 38.64
2022-09-01T09:49:53.492Z, 38.67
2022-09-01T09:50:53.485Z, 38.44
2022-09-01T09:51:53.508Z, 38.27
2022-09-01T09:52:53.556Z, 38.40
2022-09-01T09:53:54.358Z, 38.91
2022-09-01T09:54:53.625Z, 38.46
2022-09-01T09:55:56.133Z, 38.43
2022-09-01T09:56:53.689Z, 38.50
2022-09-01T09:57:53.727Z, 38.87
2022-09-01T09:58:53.776Z, 38.53
2022-09-01T09:59:59.247Z, 39.03
2022-09-01T10:00:54.017Z, 38.60
2022-09-01T10:01:53.911Z, 38.50
2022-09-01T10:02:53.901Z, 39.29
2022-09-01T10:03:54.094Z, 38.70
2022-09-01T10:04:55.828Z, 38.81
2022-09-01T10:05:53.955Z, 38.64
2022-09-01T10:06:53.995Z, 38.33
2022-09-01T10:07:54.106Z, 38.41
2022-09-01T10:08:54.106Z, 38.42
2022-09-01T10:09:54.090Z, 38.30
2022-09-01T10:10:58.218Z, 38.38
2022-09-01T10:11:54.163Z, 38.68
2022-09-01T10:12:54.270Z, 38.89
2022-09-01T10:13:54.235Z, 38.57
2022-09-01T10:14:54.245Z, 38.62
2022-09-01T10:15:54.283Z, 38.82
2022-09-01T10:16:54.414Z, 38.50
2022-09-01T10:18:14.035Z, 38.21
2022-09-01T10:18:54.418Z, 38.41
2022-09-01T10:19:54.423Z, 38.70
2022-09-01T10:20:54.448Z, 39.10
2022-09-01T10:21:54.481Z, 38.74
2022-09-01T10:22:54.531Z, 38.57
2022-09-01T10:23:54.724Z, 39.06
2022-09-01T10:24:54.650Z, 38.81
2022-09-01T10:25:54.627Z, 38.81
2022-09-01T10:26:54.652Z, 38.57
2022-09-01T10:27:55.493Z, 38.88
2022-09-01T10:28:54.775Z, 38.69
2022-09-01T10:30:12.227Z, 38.84
2022-09-01T10:30:55.006Z, 38.95
2022-09-01T10:32:14.812Z, 38.52
2022-09-01T10:32:56.384Z, 38.60
2022-09-01T10:33:58.470Z, 38.84
2022-09-01T10:34:54.902Z, 39.13
2022-09-01T10:35:54.950Z, 38.53
2022-09-01T10:36:56.832Z, 39.00
2022-09-01T10:37:55.896Z, 38.77
2022-09-01T10:39:00.232Z, 39.16
2022-09-01T10:39:55.181Z, 38.74
2022-09-01T10:40:55.220Z, 38.96
2022-09-01T10:42:00.136Z, 38.62
2022-09-01T10:42:55.244Z, 38.88
2022-09-01T10:43:58.891Z, 38.70
2022-09-01T10:44:55.263Z, 38.79
2022-09-01T10:45:58.834Z, 38.64
2022-09-01T10:46:59.920Z, 38.90
2022-09-01T10:47:55.419Z, 38.54
2022-09-01T10:48:56.286Z, 38.33
2022-09-01T10:49:55.464Z, 38.19
2022-09-01T10:50:55.460Z, 38.34
2022-09-01T10:51:56.666Z, 38.57
2022-09-01T10:52:55.547Z, 38.67
2022-09-01T10:53:55.567Z, 38.31
2022-09-01T10:54:56.019Z, 38.63
2022-09-01T10:55:59.087Z, 38.67
2022-09-01T10:56:55.660Z, 39.02
2022-09-01T10:57:56.189Z, 38.96
2022-09-01T10:59:57.087Z, 38.87
2022-09-01T11:01:11.766Z, 38.95
2022-09-01T11:02:22.886Z, 38.90
2022-09-01T11:02:55.905Z, 38.64
2022-09-01T11:03:56.451Z, 39.16
2022-09-01T11:04:55.971Z, 39.21
2022-09-01T11:06:11.096Z, 39.20
2022-09-01T11:07:11.920Z, 38.81
2022-09-01T11:08:01.122Z, 39.16
2022-09-01T11:08:56.113Z, 39.14
2022-09-01T11:09:57.428Z, 38.95
2022-09-01T11:10:56.159Z, 39.29
2022-09-01T11:11:56.193Z, 39.08
2022-09-01T11:12:56.194Z, 39.20
2022-09-01T11:13:56.243Z, 38.88
2022-09-01T11:14:56.281Z, 38.94
2022-09-01T11:16:00.404Z, 39.03
2022-09-01T11:16:56.349Z, 39.00
2022-09-01T11:17:56.416Z, 39.08
2022-09-01T11:18:56.386Z, 38.88
2022-09-01T11:19:56.407Z, 39.09
2022-09-01T11:20:57.946Z, 39.02
2022-09-01T11:21:56.511Z, 39.02
2022-09-01T11:22:56.558Z, 39.09
2022-09-01T11:23:56.549Z, 39.08
2022-09-01T11:25:02.521Z, 38.92
2022-09-01T11:26:20.137Z, 39.02
2022-09-01T11:26:56.672Z, 39.10
2022-09-01T11:27:56.768Z, 38.82
2022-09-01T11:28:56.737Z, 38.95
2022-09-01T11:29:56.770Z, 39.23
2022-09-01T11:30:56.765Z, 38.66
2022-09-01T11:31:56.805Z, 38.86
2022-09-01T11:32:56.834Z, 38.99
2022-09-01T11:33:56.929Z, 38.82
2022-09-01T11:34:56.899Z, 39.11
2022-09-01T11:35:56.909Z, 38.82
2022-09-01T11:36:56.953Z, 38.83
2022-09-01T11:37:57.016Z, 38.83
2022-09-01T11:38:57.071Z, 38.96
2022-09-01T11:39:57.064Z, 39.25
2022-09-01T11:40:57.205Z, 38.92
2022-09-01T11:41:59.659Z, 38.74
2022-09-01T11:42:57.170Z, 38.86
2022-09-01T11:43:57.194Z, 38.74
2022-09-01T11:44:57.243Z, 38.95
2022-09-01T11:45:57.302Z, 38.74
2022-09-01T11:46:57.360Z, 39.07
2022-09-01T11:47:57.346Z, 38.90
2022-09-01T11:48:57.432Z, 39.00
2022-09-01T11:49:57.435Z, 38.96
2022-09-01T11:50:57.424Z, 38.70
2022-09-01T11:51:57.459Z, 39.07
2022-09-01T11:53:01.245Z, 38.80
2022-09-01T11:53:57.533Z, 38.68
2022-09-01T11:54:57.635Z, 38.73
2022-09-01T11:55:57.637Z, 38.90
2022-09-01T11:56:57.638Z, 38.93
2022-09-01T11:57:57.678Z, 38.66
2022-09-01T11:58:57.699Z, 38.66
2022-09-01T11:59:57.800Z, 39.03
2022-09-01T12:00:57.784Z, 38.82
2022-09-01T12:01:57.947Z, 38.85
2022-09-01T12:02:58.085Z, 38.93
2022-09-01T12:03:57.887Z, 38.75
2022-09-01T12:04:57.910Z, 38.83
2022-09-01T12:05:57.931Z, 38.48
2022-09-01T12:06:58.020Z, 38.80
2022-09-01T12:07:58.021Z, 39.11
2022-09-01T12:08:58.029Z, 39.04
2022-09-01T12:09:58.082Z, 38.85
2022-09-01T12:10:58.122Z, 38.98
2022-09-01T12:11:58.155Z, 39.02
2022-09-01T12:12:58.188Z, 39.01
2022-09-01T12:13:58.262Z, 38.90
2022-09-01T12:15:05.543Z, 38.92
2022-09-01T12:16:16.484Z, 39.09
2022-09-01T12:16:58.458Z, 38.85
2022-09-01T12:17:58.379Z, 38.90
2022-09-01T12:18:58.376Z, 38.94
2022-09-01T12:19:58.408Z, 39.09
2022-09-01T12:20:58.449Z, 38.96
2022-09-01T12:21:58.531Z, 39.14
2022-09-01T12:22:58.575Z, 39.04
2022-09-01T12:23:58.540Z, 38.92
2022-09-01T12:24:58.572Z, 38.95
2022-09-01T12:25:58.656Z, 39.34
2022-09-01T12:26:58.639Z, 38.97
2022-09-01T12:27:58.656Z, 38.93
2022-09-01T12:28:58.669Z, 39.09
2022-09-01T12:29:58.809Z, 38.83
2022-09-01T12:30:58.764Z, 39.19
2022-09-01T12:31:58.843Z, 39.17
2022-09-01T12:33:24.072Z, 39.10
2022-09-01T12:33:58.869Z, 39.14
2022-09-01T12:34:58.871Z, 39.31
2022-09-01T12:35:59.547Z, 39.43
2022-09-01T12:36:58.925Z, 39.11
2022-09-01T12:37:58.974Z, 39.40
2022-09-01T12:38:58.999Z, 39.09
2022-09-01T12:39:59.093Z, 39.09
2022-09-01T12:40:59.109Z, 38.80
2022-09-01T12:41:59.189Z, 38.87
2022-09-01T12:42:59.194Z, 39.15